sensor_id;sensor_type;location;lat;lon;timestamp;P1;durP1;ratioP1;P2;durP2;ratioP2
47812;SDS011;34221;45.296;9.516;2023-02-18T00:00:11;15.13;;;11.68;;
47812;SDS011;34221;45.296;9.516;2023-02-18T00:00:30;16.85;;;11.80;;
47812;SDS011;34221;45.296;9.516;2023-02-18T00:00:45;17.92;;;11.77;;
47812;SDS011;34221;45.296;9.516;2023-02-18T00:01:00;15.40;;;11.95;;
47812;SDS011;34221;45.296;9.516;2023-02-18T00:01:17;14.50;;;11.57;;
47812;SDS011;34221;45.296;9.516;2023-02-18T00:01:34;17.65;;;11.88;;
47812;SDS011;34221;45.296;9.516;2023-02-18T00:01:49;18.77;;;12.48;;
47812;SDS011;34221;45.296;9.516;2023-02-18T00:02:04;16.83;;;11.93;;
47812;SDS011;34221;45.296;9.516;2023-02-18T00:02:19;17.02;;;12.02;;
47812;SDS011;34221;45.296;9.516;2023-02-18T00:02:34;16.70;;;12.15;;
47812;SDS011;34221;45.296;9.516;2023-02-18T00:02:49;15.35;;;11.73;;
47812;SDS011;34221;45.296;9.516;2023-02-18T00:03:04;15.50;;;12.10;;
47812;SDS011;34221;45.296;9.516;2023-02-18T00:03:19;15.82;;;12.57;;
47812;SDS011;34221;45.296;9.516;2023-02-18T00:03:34;17.48;;;12.65;;
47812;SDS011;34221;45.296;9.516;2023-02-18T00:03:49;18.48;;;12.73;;
47812;SDS011;34221;45.296;9.516;2023-02-18T00:04:04;17.15;;;12.43;;
47812;SDS011;34221;45.296;9.516;2023-02-18T00:04:19;18.05;;;12.52;;
47812;SDS011;34221;45.296;9.516;2023-02-18T00:04:34;18.23;;;12.48;;
47812;SDS011;34221;45.296;9.516;2023-02-18T00:04:49;17.27;;;12.73;;
47812;SDS011;34221;45.296;9.516;2023-02-18T00:05:08;16.98;;;13.13;;
47812;SDS011;34221;45.296;9.516;2023-02-18T00:05:22;17.08;;;13.20;;
47812;SDS011;34221;45.296;9.516;2023-02-18T00:05:37;16.67;;;13.20;;
47812;SDS011;34221;45.296;9.516;2023-02-18T00:05:52;16.45;;;13.25;;
47812;SDS011;34221;45.296;9.516;2023-02-18T00:06:29;18.20;;;12.65;;
47812;SDS011;34221;45.296;9.516;2023-02-18T00:06:47;16.23;;;13.48;;
47812;SDS011;34221;45.296;9.516;2023-02-18T00:07:02;15.53;;;13.13;;
47812;SDS011;34221;45.296;9.516;2023-02-18T00:07:17;15.63;;;12.43;;
47812;SDS011;34221;45.296;9.516;2023-02-18T00:07:33;16.77;;;12.80;;
47812;SDS011;34221;45.296;9.516;2023-02-18T00:07:49;18.33;;;13.55;;
47812;SDS011;34221;45.296;9.516;2023-02-18T00:08:04;19.73;;;14.35;;
47812;SDS011;34221;45.296;9.516;2023-02-18T00:08:19;18.88;;;14.40;;
47812;SDS011;34221;45.296;9.516;2023-02-18T00:08:35;18.95;;;13.82;;
47812;SDS011;34221;45.296;9.516;2023-02-18T00:08:50;18.48;;;13.73;;
47812;SDS011;34221;45.296;9.516;2023-02-18T00:09:06;17.70;;;13.98;;
47812;SDS011;34221;45.296;9.516;2023-02-18T00:09:22;17.90;;;14.00;;
47812;SDS011;34221;45.296;9.516;2023-02-18T00:09:37;17.23;;;13.82;;
47812;SDS011;34221;45.296;9.516;2023-02-18T00:09:52;17.88;;;13.82;;
47812;SDS011;34221;45.296;9.516;2023-02-18T00:10:08;20.33;;;14.67;;
47812;SDS011;34221;45.296;9.516;2023-02-18T00:10:27;18.33;;;13.60;;
47812;SDS011;34221;45.296;9.516;2023-02-18T00:10:42;17.02;;;13.30;;
47812;SDS011;34221;45.296;9.516;2023-02-18T00:10:57;17.30;;;13.40;;
47812;SDS011;34221;45.296;9.516;2023-02-18T00:11:13;18.42;;;13.75;;
47812;SDS011;34221;45.296;9.516;2023-02-18T00:11:29;19.88;;;14.65;;
47812;SDS011;34221;45.296;9.516;2023-02-18T00:11:46;17.25;;;13.35;;
47812;SDS011;34221;45.296;9.516;2023-02-18T00:12:01;16.45;;;12.98;;
47812;SDS011;34221;45.296;9.516;2023-02-18T00:12:16;15.60;;;12.55;;
47812;SDS011;34221;45.296;9.516;2023-02-18T00:12:30;16.33;;;13.05;;
47812;SDS011;34221;45.296;9.516;2023-02-18T00:12:45;18.90;;;13.35;;
47812;SDS011;34221;45.296;9.516;2023-02-18T00:13:00;17.73;;;13.18;;
47812;SDS011;34221;45.296;9.516;2023-02-18T00:13:15;16.52;;;13.45;;
47812;SDS011;34221;45.296;9.516;2023-02-18T00:13:30;17.88;;;13.07;;
47812;SDS011;34221;45.296;9.516;2023-02-18T00:13:49;18.98;;;13.30;;
47812;SDS011;34221;45.296;9.516;2023-02-18T00:14:11;15.90;;;12.75;;
47812;SDS011;34221;45.296;9.516;2023-02-18T00:14:28;16.30;;;12.43;;
47812;SDS011;34221;45.296;9.516;2023-02-18T00:14:43;17.42;;;12.95;;
47812;SDS011;34221;45.296;9.516;2023-02-18T00:14:58;19.00;;;13.23;;
47812;SDS011;34221;45.296;9.516;2023-02-18T00:15:13;20.27;;;13.50;;
47812;SDS011;34221;45.296;9.516;2023-02-18T00:15:28;21.87;;;13.80;;
47812;SDS011;34221;45.296;9.516;2023-02-18T00:15:43;19.60;;;13.75;;
47812;SDS011;34221;45.296;9.516;2023-02-18T00:16:04;16.00;;;13.13;;
47812;SDS011;34221;45.296;9.516;2023-02-18T00:16:25;18.45;;;13.07;;
47812;SDS011;34221;45.296;9.516;2023-02-18T00:16:42;18.13;;;13.52;;
47812;SDS011;34221;45.296;9.516;2023-02-18T00:16:58;17.65;;;13.18;;
47812;SDS011;34221;45.296;9.516;2023-02-18T00:17:13;17.73;;;12.43;;
47812;SDS011;34221;45.296;9.516;2023-02-18T00:17:28;16.95;;;12.45;;
47812;SDS011;34221;45.296;9.516;2023-02-18T00:17:43;20.95;;;13.10;;
47812;SDS011;34221;45.296;9.516;2023-02-18T00:18:18;16.00;;;12.77;;
47812;SDS011;34221;45.296;9.516;2023-02-18T00:18:33;16.83;;;12.32;;
47812;SDS011;34221;45.296;9.516;2023-02-18T00:18:49;16.23;;;12.10;;
47812;SDS011;34221;45.296;9.516;2023-02-18T00:19:05;16.17;;;12.43;;
47812;SDS011;34221;45.296;9.516;2023-02-18T00:19:24;18.17;;;12.48;;
47812;SDS011;34221;45.296;9.516;2023-02-18T00:19:39;16.45;;;11.85;;
47812;SDS011;34221;45.296;9.516;2023-02-18T00:19:54;15.13;;;12.05;;
47812;SDS011;34221;45.296;9.516;2023-02-18T00:20:10;14.65;;;12.23;;
47812;SDS011;34221;45.296;9.516;2023-02-18T00:20:25;16.40;;;12.50;;
47812;SDS011;34221;45.296;9.516;2023-02-18T00:20:40;18.00;;;12.88;;
47812;SDS011;34221;45.296;9.516;2023-02-18T00:20:55;17.55;;;12.45;;
47812;SDS011;34221;45.296;9.516;2023-02-18T00:21:10;16.85;;;12.13;;
47812;SDS011;34221;45.296;9.516;2023-02-18T00:21:25;14.77;;;11.75;;
47812;SDS011;34221;45.296;9.516;2023-02-18T00:21:41;14.40;;;11.57;;
47812;SDS011;34221;45.296;9.516;2023-02-18T00:21:56;14.93;;;11.55;;
47812;SDS011;34221;45.296;9.516;2023-02-18T00:22:11;15.27;;;12.20;;
47812;SDS011;34221;45.296;9.516;2023-02-18T00:22:26;16.92;;;12.23;;
47812;SDS011;34221;45.296;9.516;2023-02-18T00:22:42;15.77;;;11.27;;
47812;SDS011;34221;45.296;9.516;2023-02-18T00:22:57;14.68;;;11.50;;
47812;SDS011;34221;45.296;9.516;2023-02-18T00:23:12;19.17;;;12.98;;
47812;SDS011;34221;45.296;9.516;2023-02-18T00:23:27;20.15;;;13.13;;
47812;SDS011;34221;45.296;9.516;2023-02-18T00:23:42;17.75;;;11.98;;
47812;SDS011;34221;45.296;9.516;2023-02-18T00:23:57;15.48;;;11.52;;
47812;SDS011;34221;45.296;9.516;2023-02-18T00:24:13;13.93;;;11.68;;
47812;SDS011;34221;45.296;9.516;2023-02-18T00:24:29;14.85;;;12.00;;
47812;SDS011;34221;45.296;9.516;2023-02-18T00:24:44;14.45;;;11.98;;
47812;SDS011;34221;45.296;9.516;2023-02-18T00:24:59;14.13;;;11.52;;
47812;SDS011;34221;45.296;9.516;2023-02-18T00:25:14;14.45;;;11.25;;
47812;SDS011;34221;45.296;9.516;2023-02-18T00:25:29;15.50;;;11.52;;
47812;SDS011;34221;45.296;9.516;2023-02-18T00:25:44;17.05;;;11.75;;
47812;SDS011;34221;45.296;9.516;2023-02-18T00:25:59;18.15;;;12.05;;
47812;SDS011;34221;45.296;9.516;2023-02-18T00:26:23;18.65;;;12.48;;
47812;SDS011;34221;45.296;9.516;2023-02-18T00:26:39;15.77;;;11.30;;
47812;SDS011;34221;45.296;9.516;2023-02-18T00:26:55;15.35;;;11.30;;
47812;SDS011;34221;45.296;9.516;2023-02-18T00:27:10;15.70;;;11.52;;
47812;SDS011;34221;45.296;9.516;2023-02-18T00:27:25;18.05;;;11.60;;
47812;SDS011;34221;45.296;9.516;2023-02-18T00:27:40;17.77;;;11.45;;
47812;SDS011;34221;45.296;9.516;2023-02-18T00:27:55;15.95;;;11.77;;
47812;SDS011;34221;45.296;9.516;2023-02-18T00:28:10;15.95;;;11.75;;
47812;SDS011;34221;45.296;9.516;2023-02-18T00:28:25;15.50;;;11.32;;
47812;SDS011;34221;45.296;9.516;2023-02-18T00:28:40;15.75;;;11.95;;
47812;SDS011;34221;45.296;9.516;2023-02-18T00:28:56;16.10;;;11.82;;
47812;SDS011;34221;45.296;9.516;2023-02-18T00:29:11;14.98;;;11.05;;
47812;SDS011;34221;45.296;9.516;2023-02-18T00:29:26;14.95;;;11.57;;
47812;SDS011;34221;45.296;9.516;2023-02-18T00:29:41;15.18;;;12.10;;
47812;SDS011;34221;45.296;9.516;2023-02-18T00:29:57;14.95;;;12.13;;
47812;SDS011;34221;45.296;9.516;2023-02-18T00:30:14;14.60;;;12.02;;
47812;SDS011;34221;45.296;9.516;2023-02-18T00:30:29;15.57;;;12.07;;
47812;SDS011;34221;45.296;9.516;2023-02-18T00:30:44;17.55;;;12.43;;
47812;SDS011;34221;45.296;9.516;2023-02-18T00:30:59;16.73;;;12.15;;
47812;SDS011;34221;45.296;9.516;2023-02-18T00:31:22;17.00;;;11.57;;
47812;SDS011;34221;45.296;9.516;2023-02-18T00:31:46;14.18;;;11.43;;
47812;SDS011;34221;45.296;9.516;2023-02-18T00:32:01;15.85;;;11.30;;
47812;SDS011;34221;45.296;9.516;2023-02-18T00:32:17;15.80;;;11.00;;
47812;SDS011;34221;45.296;9.516;2023-02-18T00:32:33;13.88;;;10.63;;
47812;SDS011;34221;45.296;9.516;2023-02-18T00:32:48;14.27;;;10.68;;
47812;SDS011;34221;45.296;9.516;2023-02-18T00:33:03;15.00;;;10.95;;
47812;SDS011;34221;45.296;9.516;2023-02-18T00:33:18;14.52;;;11.05;;
47812;SDS011;34221;45.296;9.516;2023-02-18T00:33:33;14.68;;;11.38;;
47812;SDS011;34221;45.296;9.516;2023-02-18T00:33:48;14.32;;;10.63;;
47812;SDS011;34221;45.296;9.516;2023-02-18T00:34:04;13.88;;;10.57;;
47812;SDS011;34221;45.296;9.516;2023-02-18T00:34:19;16.20;;;11.88;;
47812;SDS011;34221;45.296;9.516;2023-02-18T00:34:34;17.17;;;12.00;;
47812;SDS011;34221;45.296;9.516;2023-02-18T00:34:51;17.13;;;12.13;;
47812;SDS011;34221;45.296;9.516;2023-02-18T00:35:07;17.17;;;12.05;;
47812;SDS011;34221;45.296;9.516;2023-02-18T00:35:22;17.30;;;11.32;;
47812;SDS011;34221;45.296;9.516;2023-02-18T00:35:37;16.90;;;11.30;;
47812;SDS011;34221;45.296;9.516;2023-02-18T00:35:52;15.23;;;11.35;;
47812;SDS011;34221;45.296;9.516;2023-02-18T00:36:16;15.18;;;11.57;;
47812;SDS011;34221;45.296;9.516;2023-02-18T00:36:32;16.00;;;11.18;;
47812;SDS011;34221;45.296;9.516;2023-02-18T00:36:48;14.95;;;11.35;;
47812;SDS011;34221;45.296;9.516;2023-02-18T00:37:04;15.38;;;11.55;;
47812;SDS011;34221;45.296;9.516;2023-02-18T00:37:18;16.30;;;11.85;;
47812;SDS011;34221;45.296;9.516;2023-02-18T00:37:33;17.15;;;12.38;;
47812;SDS011;34221;45.296;9.516;2023-02-18T00:37:50;15.68;;;11.65;;
47812;SDS011;34221;45.296;9.516;2023-02-18T00:38:06;13.23;;;10.55;;
47812;SDS011;34221;45.296;9.516;2023-02-18T00:38:21;14.93;;;11.27;;
47812;SDS011;34221;45.296;9.516;2023-02-18T00:38:36;16.17;;;12.07;;
47812;SDS011;34221;45.296;9.516;2023-02-18T00:38:52;15.98;;;11.95;;
47812;SDS011;34221;45.296;9.516;2023-02-18T00:39:12;18.00;;;12.63;;
47812;SDS011;34221;45.296;9.516;2023-02-18T00:39:28;17.83;;;12.73;;
47812;SDS011;34221;45.296;9.516;2023-02-18T00:39:43;20.48;;;13.88;;
47812;SDS011;34221;45.296;9.516;2023-02-18T00:39:58;19.25;;;14.10;;
47812;SDS011;34221;45.296;9.516;2023-02-18T00:40:13;16.63;;;13.25;;
47812;SDS011;34221;45.296;9.516;2023-02-18T00:40:28;16.83;;;12.90;;
47812;SDS011;34221;45.296;9.516;2023-02-18T00:40:43;17.33;;;13.13;;
47812;SDS011;34221;45.296;9.516;2023-02-18T00:40:58;17.38;;;13.25;;
47812;SDS011;34221;45.296;9.516;2023-02-18T00:41:14;16.35;;;13.13;;
47812;SDS011;34221;45.296;9.516;2023-02-18T00:41:30;17.02;;;13.35;;
47812;SDS011;34221;45.296;9.516;2023-02-18T00:41:46;17.27;;;13.50;;
47812;SDS011;34221;45.296;9.516;2023-02-18T00:42:21;16.83;;;12.82;;
47812;SDS011;34221;45.296;9.516;2023-02-18T00:42:36;17.63;;;13.05;;
47812;SDS011;34221;45.296;9.516;2023-02-18T00:42:51;18.02;;;13.02;;
47812;SDS011;34221;45.296;9.516;2023-02-18T00:43:07;17.92;;;13.30;;
47812;SDS011;34221;45.296;9.516;2023-02-18T00:43:23;17.52;;;13.85;;
47812;SDS011;34221;45.296;9.516;2023-02-18T00:43:38;18.63;;;14.00;;
47812;SDS011;34221;45.296;9.516;2023-02-18T00:43:53;18.88;;;13.93;;
47812;SDS011;34221;45.296;9.516;2023-02-18T00:44:29;18.95;;;14.07;;
47812;SDS011;34221;45.296;9.516;2023-02-18T00:44:45;17.80;;;13.98;;
47812;SDS011;34221;45.296;9.516;2023-02-18T00:45:01;18.85;;;14.65;;
47812;SDS011;34221;45.296;9.516;2023-02-18T00:45:17;17.73;;;14.10;;
47812;SDS011;34221;45.296;9.516;2023-02-18T00:45:31;17.73;;;14.25;;
47812;SDS011;34221;45.296;9.516;2023-02-18T00:45:46;18.52;;;14.48;;
47812;SDS011;34221;45.296;9.516;2023-02-18T00:46:01;18.60;;;14.52;;
47812;SDS011;34221;45.296;9.516;2023-02-18T00:46:17;21.10;;;14.95;;
47812;SDS011;34221;45.296;9.516;2023-02-18T00:46:32;21.08;;;15.40;;
47812;SDS011;34221;45.296;9.516;2023-02-18T00:46:48;19.15;;;15.35;;
47812;SDS011;34221;45.296;9.516;2023-02-18T00:47:03;20.15;;;14.75;;
47812;SDS011;34221;45.296;9.516;2023-02-18T00:47:18;19.35;;;14.60;;
47812;SDS011;34221;45.296;9.516;2023-02-18T00:47:33;18.25;;;14.65;;
47812;SDS011;34221;45.296;9.516;2023-02-18T00:47:48;18.60;;;14.85;;
47812;SDS011;34221;45.296;9.516;2023-02-18T00:48:03;17.83;;;15.05;;
47812;SDS011;34221;45.296;9.516;2023-02-18T00:48:18;18.10;;;14.88;;
47812;SDS011;34221;45.296;9.516;2023-02-18T00:48:34;19.55;;;15.18;;
47812;SDS011;34221;45.296;9.516;2023-02-18T00:48:50;18.20;;;14.80;;
47812;SDS011;34221;45.296;9.516;2023-02-18T00:49:05;21.58;;;14.60;;
47812;SDS011;34221;45.296;9.516;2023-02-18T00:49:20;22.30;;;14.98;;
47812;SDS011;34221;45.296;9.516;2023-02-18T00:49:35;21.70;;;15.55;;
47812;SDS011;34221;45.296;9.516;2023-02-18T00:49:51;22.58;;;15.45;;
47812;SDS011;34221;45.296;9.516;2023-02-18T00:50:07;19.05;;;14.68;;
47812;SDS011;34221;45.296;9.516;2023-02-18T00:50:22;18.08;;;14.82;;
47812;SDS011;34221;45.296;9.516;2023-02-18T00:50:38;17.40;;;14.23;;
47812;SDS011;34221;45.296;9.516;2023-02-18T00:50:53;17.50;;;14.02;;
47812;SDS011;34221;45.296;9.516;2023-02-18T00:51:10;19.70;;;15.32;;
47812;SDS011;34221;45.296;9.516;2023-02-18T00:51:26;20.88;;;15.85;;
47812;SDS011;34221;45.296;9.516;2023-02-18T00:51:41;18.45;;;15.05;;
47812;SDS011;34221;45.296;9.516;2023-02-18T00:51:56;17.85;;;14.15;;
47812;SDS011;34221;45.296;9.516;2023-02-18T00:52:11;18.13;;;13.85;;
47812;SDS011;34221;45.296;9.516;2023-02-18T00:52:28;17.33;;;14.20;;
47812;SDS011;34221;45.296;9.516;2023-02-18T00:52:43;18.35;;;14.75;;
47812;SDS011;34221;45.296;9.516;2023-02-18T00:52:58;18.90;;;14.32;;
47812;SDS011;34221;45.296;9.516;2023-02-18T00:53:13;20.38;;;14.02;;
47812;SDS011;34221;45.296;9.516;2023-02-18T00:53:28;22.90;;;14.55;;
47812;SDS011;34221;45.296;9.516;2023-02-18T00:53:44;21.95;;;14.65;;
47812;SDS011;34221;45.296;9.516;2023-02-18T00:53:59;19.47;;;14.87;;
47812;SDS011;34221;45.296;9.516;2023-02-18T00:54:14;18.85;;;15.13;;
47812;SDS011;34221;45.296;9.516;2023-02-18T00:54:28;19.37;;;15.00;;
47812;SDS011;34221;45.296;9.516;2023-02-18T00:54:43;19.03;;;14.43;;
47812;SDS011;34221;45.296;9.516;2023-02-18T00:54:58;19.43;;;14.10;;
47812;SDS011;34221;45.296;9.516;2023-02-18T00:55:13;19.98;;;14.38;;
47812;SDS011;34221;45.296;9.516;2023-02-18T00:55:28;18.55;;;14.38;;
47812;SDS011;34221;45.296;9.516;2023-02-18T00:55:44;20.95;;;14.95;;
47812;SDS011;34221;45.296;9.516;2023-02-18T00:56:01;21.05;;;14.68;;
47812;SDS011;34221;45.296;9.516;2023-02-18T00:56:16;19.63;;;14.60;;
47812;SDS011;34221;45.296;9.516;2023-02-18T00:56:32;20.98;;;14.68;;
47812;SDS011;34221;45.296;9.516;2023-02-18T00:56:47;20.65;;;14.80;;
47812;SDS011;34221;45.296;9.516;2023-02-18T00:57:02;20.85;;;15.00;;
47812;SDS011;34221;45.296;9.516;2023-02-18T00:57:17;20.98;;;15.32;;
47812;SDS011;34221;45.296;9.516;2023-02-18T00:57:32;21.77;;;15.77;;
47812;SDS011;34221;45.296;9.516;2023-02-18T00:57:47;20.58;;;15.20;;
47812;SDS011;34221;45.296;9.516;2023-02-18T00:58:02;21.00;;;14.95;;
47812;SDS011;34221;45.296;9.516;2023-02-18T00:58:16;21.35;;;15.23;;
47812;SDS011;34221;45.296;9.516;2023-02-18T00:58:32;19.58;;;14.57;;
47812;SDS011;34221;45.296;9.516;2023-02-18T00:58:48;18.50;;;14.32;;
47812;SDS011;34221;45.296;9.516;2023-02-18T00:59:04;18.13;;;14.48;;
47812;SDS011;34221;45.296;9.516;2023-02-18T00:59:19;18.48;;;14.23;;
47812;SDS011;34221;45.296;9.516;2023-02-18T00:59:34;18.65;;;14.10;;
47812;SDS011;34221;45.296;9.516;2023-02-18T00:59:49;20.20;;;14.55;;
47812;SDS011;34221;45.296;9.516;2023-02-18T01:00:04;19.40;;;14.82;;
47812;SDS011;34221;45.296;9.516;2023-02-18T01:00:21;19.02;;;15.10;;
47812;SDS011;34221;45.296;9.516;2023-02-18T01:00:36;19.75;;;15.65;;
47812;SDS011;34221;45.296;9.516;2023-02-18T01:00:51;19.40;;;15.63;;
47812;SDS011;34221;45.296;9.516;2023-02-18T01:01:08;21.65;;;15.73;;
47812;SDS011;34221;45.296;9.516;2023-02-18T01:01:26;21.02;;;15.65;;
47812;SDS011;34221;45.296;9.516;2023-02-18T01:01:41;20.45;;;14.95;;
47812;SDS011;34221;45.296;9.516;2023-02-18T01:01:56;20.35;;;15.65;;
47812;SDS011;34221;45.296;9.516;2023-02-18T01:02:11;18.58;;;14.98;;
47812;SDS011;34221;45.296;9.516;2023-02-18T01:02:25;18.52;;;14.48;;
47812;SDS011;34221;45.296;9.516;2023-02-18T01:02:41;19.20;;;15.20;;
47812;SDS011;34221;45.296;9.516;2023-02-18T01:02:55;19.20;;;15.18;;
47812;SDS011;34221;45.296;9.516;2023-02-18T01:03:12;19.38;;;15.13;;
47812;SDS011;34221;45.296;9.516;2023-02-18T01:03:28;21.40;;;16.20;;
47812;SDS011;34221;45.296;9.516;2023-02-18T01:03:43;20.63;;;15.77;;
47812;SDS011;34221;45.296;9.516;2023-02-18T01:03:58;18.55;;;15.38;;
47812;SDS011;34221;45.296;9.516;2023-02-18T01:04:13;18.55;;;15.65;;
47812;SDS011;34221;45.296;9.516;2023-02-18T01:04:28;19.38;;;15.07;;
47812;SDS011;34221;45.296;9.516;2023-02-18T01:04:43;20.38;;;15.10;;
47812;SDS011;34221;45.296;9.516;2023-02-18T01:04:59;19.55;;;15.48;;
47812;SDS011;34221;45.296;9.516;2023-02-18T01:05:14;18.45;;;15.15;;
47812;SDS011;34221;45.296;9.516;2023-02-18T01:05:29;18.42;;;14.68;;
47812;SDS011;34221;45.296;9.516;2023-02-18T01:05:44;20.70;;;14.73;;
47812;SDS011;34221;45.296;9.516;2023-02-18T01:05:59;23.75;;;15.43;;
47812;SDS011;34221;45.296;9.516;2023-02-18T01:06:14;21.88;;;15.45;;
47812;SDS011;34221;45.296;9.516;2023-02-18T01:06:29;21.08;;;15.18;;
47812;SDS011;34221;45.296;9.516;2023-02-18T01:06:44;20.92;;;15.27;;
47812;SDS011;34221;45.296;9.516;2023-02-18T01:06:59;20.02;;;15.30;;
47812;SDS011;34221;45.296;9.516;2023-02-18T01:07:14;19.35;;;15.13;;
47812;SDS011;34221;45.296;9.516;2023-02-18T01:07:29;19.55;;;15.32;;
47812;SDS011;34221;45.296;9.516;2023-02-18T01:07:44;21.45;;;15.32;;
47812;SDS011;34221;45.296;9.516;2023-02-18T01:07:59;21.10;;;15.27;;
47812;SDS011;34221;45.296;9.516;2023-02-18T01:08:14;19.88;;;15.18;;
47812;SDS011;34221;45.296;9.516;2023-02-18T01:08:30;21.08;;;15.82;;
47812;SDS011;34221;45.296;9.516;2023-02-18T01:08:45;22.38;;;16.00;;
47812;SDS011;34221;45.296;9.516;2023-02-18T01:09:00;20.67;;;15.02;;
47812;SDS011;34221;45.296;9.516;2023-02-18T01:09:17;21.02;;;14.85;;
47812;SDS011;34221;45.296;9.516;2023-02-18T01:09:33;21.88;;;16.15;;
47812;SDS011;34221;45.296;9.516;2023-02-18T01:09:48;19.08;;;15.35;;
47812;SDS011;34221;45.296;9.516;2023-02-18T01:10:03;18.55;;;14.95;;
47812;SDS011;34221;45.296;9.516;2023-02-18T01:10:19;19.65;;;15.40;;
47812;SDS011;34221;45.296;9.516;2023-02-18T01:10:34;20.15;;;15.40;;
47812;SDS011;34221;45.296;9.516;2023-02-18T01:10:54;18.17;;;14.50;;
47812;SDS011;34221;45.296;9.516;2023-02-18T01:11:13;23.05;;;14.73;;
47812;SDS011;34221;45.296;9.516;2023-02-18T01:11:28;26.15;;;15.35;;
47812;SDS011;34221;45.296;9.516;2023-02-18T01:11:43;22.60;;;15.75;;
47812;SDS011;34221;45.296;9.516;2023-02-18T01:11:58;20.25;;;15.20;;
47812;SDS011;34221;45.296;9.516;2023-02-18T01:12:14;19.42;;;14.60;;
47812;SDS011;34221;45.296;9.516;2023-02-18T01:12:30;18.67;;;14.50;;
47812;SDS011;34221;45.296;9.516;2023-02-18T01:12:45;19.27;;;14.45;;
47812;SDS011;34221;45.296;9.516;2023-02-18T01:13:00;21.25;;;15.05;;
47812;SDS011;34221;45.296;9.516;2023-02-18T01:13:38;20.83;;;15.73;;
47812;SDS011;34221;45.296;9.516;2023-02-18T01:13:54;20.25;;;15.40;;
47812;SDS011;34221;45.296;9.516;2023-02-18T01:14:09;20.55;;;15.70;;
47812;SDS011;34221;45.296;9.516;2023-02-18T01:14:24;20.27;;;16.45;;
47812;SDS011;34221;45.296;9.516;2023-02-18T01:14:39;19.58;;;16.00;;
47812;SDS011;34221;45.296;9.516;2023-02-18T01:14:54;19.35;;;14.52;;
47812;SDS011;34221;45.296;9.516;2023-02-18T01:15:10;21.60;;;14.70;;
47812;SDS011;34221;45.296;9.516;2023-02-18T01:15:29;20.98;;;15.50;;
47812;SDS011;34221;45.296;9.516;2023-02-18T01:15:45;19.67;;;15.85;;
47812;SDS011;34221;45.296;9.516;2023-02-18T01:16:00;20.75;;;15.68;;
47812;SDS011;34221;45.296;9.516;2023-02-18T01:16:17;20.58;;;14.90;;
47812;SDS011;34221;45.296;9.516;2023-02-18T01:16:33;19.00;;;14.48;;
47812;SDS011;34221;45.296;9.516;2023-02-18T01:16:48;19.70;;;15.05;;
47812;SDS011;34221;45.296;9.516;2023-02-18T01:17:03;20.35;;;15.10;;
47812;SDS011;34221;45.296;9.516;2023-02-18T01:17:19;20.30;;;15.48;;
47812;SDS011;34221;45.296;9.516;2023-02-18T01:17:34;20.33;;;15.80;;
47812;SDS011;34221;45.296;9.516;2023-02-18T01:17:52;21.55;;;16.20;;
47812;SDS011;34221;45.296;9.516;2023-02-18T01:18:07;23.15;;;15.85;;
47812;SDS011;34221;45.296;9.516;2023-02-18T01:18:23;22.30;;;15.57;;
47812;SDS011;34221;45.296;9.516;2023-02-18T01:18:39;21.55;;;16.00;;
47812;SDS011;34221;45.296;9.516;2023-02-18T01:18:54;22.10;;;16.15;;
47812;SDS011;34221;45.296;9.516;2023-02-18T01:19:09;19.85;;;15.55;;
47812;SDS011;34221;45.296;9.516;2023-02-18T01:19:26;18.83;;;15.05;;
47812;SDS011;34221;45.296;9.516;2023-02-18T01:19:40;20.40;;;15.77;;
47812;SDS011;34221;45.296;9.516;2023-02-18T01:19:55;20.40;;;15.93;;
47812;SDS011;34221;45.296;9.516;2023-02-18T01:20:11;19.90;;;15.55;;
47812;SDS011;34221;45.296;9.516;2023-02-18T01:20:27;21.15;;;15.77;;
47812;SDS011;34221;45.296;9.516;2023-02-18T01:20:43;20.80;;;15.43;;
47812;SDS011;34221;45.296;9.516;2023-02-18T01:20:59;20.05;;;15.98;;
47812;SDS011;34221;45.296;9.516;2023-02-18T01:21:14;20.67;;;15.88;;
47812;SDS011;34221;45.296;9.516;2023-02-18T01:21:30;20.65;;;15.23;;
47812;SDS011;34221;45.296;9.516;2023-02-18T01:21:44;21.98;;;15.65;;
47812;SDS011;34221;45.296;9.516;2023-02-18T01:21:59;22.02;;;16.02;;
47812;SDS011;34221;45.296;9.516;2023-02-18T01:22:14;22.65;;;15.75;;
47812;SDS011;34221;45.296;9.516;2023-02-18T01:22:29;22.52;;;15.38;;
47812;SDS011;34221;45.296;9.516;2023-02-18T01:22:44;19.60;;;15.23;;
47812;SDS011;34221;45.296;9.516;2023-02-18T01:23:00;18.83;;;15.45;;
47812;SDS011;34221;45.296;9.516;2023-02-18T01:23:15;19.67;;;15.48;;
47812;SDS011;34221;45.296;9.516;2023-02-18T01:23:30;19.42;;;15.60;;
47812;SDS011;34221;45.296;9.516;2023-02-18T01:23:45;20.25;;;15.88;;
47812;SDS011;34221;45.296;9.516;2023-02-18T01:24:03;21.63;;;16.42;;
47812;SDS011;34221;45.296;9.516;2023-02-18T01:24:19;21.75;;;16.55;;
47812;SDS011;34221;45.296;9.516;2023-02-18T01:24:34;22.33;;;16.50;;
47812;SDS011;34221;45.296;9.516;2023-02-18T01:24:49;22.58;;;16.65;;
47812;SDS011;34221;45.296;9.516;2023-02-18T01:25:05;23.63;;;16.27;;
47812;SDS011;34221;45.296;9.516;2023-02-18T01:25:21;21.00;;;15.45;;
47812;SDS011;34221;45.296;9.516;2023-02-18T01:25:36;19.05;;;15.52;;
47812;SDS011;34221;45.296;9.516;2023-02-18T01:25:51;19.55;;;15.13;;
47812;SDS011;34221;45.296;9.516;2023-02-18T01:26:08;18.77;;;14.93;;
47812;SDS011;34221;45.296;9.516;2023-02-18T01:26:25;22.75;;;15.38;;
47812;SDS011;34221;45.296;9.516;2023-02-18T01:26:40;24.25;;;15.65;;
47812;SDS011;34221;45.296;9.516;2023-02-18T01:26:55;20.92;;;15.45;;
47812;SDS011;34221;45.296;9.516;2023-02-18T01:27:10;19.90;;;15.02;;
47812;SDS011;34221;45.296;9.516;2023-02-18T01:27:25;19.50;;;14.98;;
47812;SDS011;34221;45.296;9.516;2023-02-18T01:27:40;19.55;;;14.55;;
47812;SDS011;34221;45.296;9.516;2023-02-18T01:27:55;19.35;;;14.75;;
47812;SDS011;34221;45.296;9.516;2023-02-18T01:28:11;18.33;;;14.93;;
47812;SDS011;34221;45.296;9.516;2023-02-18T01:28:27;18.63;;;15.02;;
47812;SDS011;34221;45.296;9.516;2023-02-18T01:28:42;18.58;;;15.38;;
47812;SDS011;34221;45.296;9.516;2023-02-18T01:28:59;19.75;;;15.68;;
47812;SDS011;34221;45.296;9.516;2023-02-18T01:29:14;20.58;;;15.55;;
47812;SDS011;34221;45.296;9.516;2023-02-18T01:29:29;20.27;;;15.75;;
47812;SDS011;34221;45.296;9.516;2023-02-18T01:29:44;19.63;;;15.57;;
47812;SDS011;34221;45.296;9.516;2023-02-18T01:29:59;20.83;;;16.00;;
47812;SDS011;34221;45.296;9.516;2023-02-18T01:30:15;21.42;;;15.45;;
47812;SDS011;34221;45.296;9.516;2023-02-18T01:30:32;21.52;;;15.07;;
47812;SDS011;34221;45.296;9.516;2023-02-18T01:30:48;19.80;;;15.75;;
47812;SDS011;34221;45.296;9.516;2023-02-18T01:31:03;18.27;;;15.40;;
47812;SDS011;34221;45.296;9.516;2023-02-18T01:31:22;21.55;;;15.80;;
47812;SDS011;34221;45.296;9.516;2023-02-18T01:31:38;20.73;;;15.80;;
47812;SDS011;34221;45.296;9.516;2023-02-18T01:31:53;22.25;;;15.80;;
47812;SDS011;34221;45.296;9.516;2023-02-18T01:32:08;23.10;;;16.15;;
47812;SDS011;34221;45.296;9.516;2023-02-18T01:32:23;21.63;;;15.88;;
47812;SDS011;34221;45.296;9.516;2023-02-18T01:32:38;20.05;;;14.90;;
47812;SDS011;34221;45.296;9.516;2023-02-18T01:32:54;19.23;;;14.52;;
47812;SDS011;34221;45.296;9.516;2023-02-18T01:33:14;20.80;;;16.25;;